Air Resources Laboratory banner image
Air Resources Laboratory web site National Oceanic and Atmospheric Administration (NOAA)

az metar


KCGZ 210956Z AUTO 06015KT 10SM SCT095 23/09 RMK AO2 SLPNO T02330094 $=
KDMA 210958Z AUTO 12012KT 10SM BKN080 BKN100 22/09 A3002 RMK AO2 SLP125
 T02180093 $=
KDUG 210956Z AUTO 09014KT 10SM CLR 16/09 A3018 RMK AO2 SLP164 T01560094=
KDVT 210953Z 02004KT 10SM SCT110 22/09 A2995 RMK AO2 SLP120 T02220094=
KFFZ 210954Z 04004KT 10SM FEW095 24/07 A2995 RMK AO2 SLP116 T02440072 $=
KFHU 210958Z AUTO 12008KT 10SM CLR 14/10 A3020 RMK AO2 SLP167 T01430099=
KFLG 210957Z AUTO 00000KT 10SM BKN070 02/02 A3028 RMK AO2 SLP194 T00220017=
KGCN 210954Z 09003KT 10SM CLR 08/03 A3026 RMK AO2 SLP181 T00830028=
KIGM 210951Z AUTO 04004KT 10SM SCT100 SCT120 17/09 A3003 RMK AO2 RAB12E35
 TSB24E39 SLP107 P0001 T01670094 $=
KINW 210956Z AUTO 09006KT 10SM CLR 11/07 A3023 RMK AO2 SLP185 T01110067=
KIWA 210955Z AUTO 12013KT 10SM CLR 24/08 A2995 RMK AO2 T02450083=
KLUF 210958Z AUTO 00000KT 10SM CLR 23/13 A2992 RMK AO2 SLP119 T02300126 $=
KNYL 210957Z AUTO 17004KT 10SM CLR 19/11 A2984 RMK AO2 SLP103 T01890111=
KOLS 210954Z AUTO 00000KT 10SM BKN080 18/09 A3010 RMK AO2 SLP126 T01780094=
KPGA 210953Z AUTO 00000KT 10SM BKN095 12/07 A3020 RMK AO2 SLP184 T01220067 TSNO=
KPHX 210951Z 13011KT 10SM BKN110 26/09 A2991 RMK AO2 SLP111 T02560094=
KPRC 210953Z AUTO 14008KT 10SM CLR 15/07 A3015 RMK AO2 SLP142 T01500067=
KRQE 210953Z AUTO 00000KT 10SM CLR 03/01 A3036 RMK AO2 SLP209 T00330006 $=
KSAD 210951Z AUTO 09011KT 10SM OVC048 18/06 A3019 RMK AO2 SLP180 T01780061=
KSDL 210953Z AUTO 10008G16KT 10SM FEW110 26/07 A2995 RMK AO2 SLP117 T02610067=
KSJN 210954Z AUTO 11004KT 10SM CLR 07/03 A3027 RMK AO2 SLP183 T00720033=
KSOW 210955Z AUTO 20006KT 10SM CLR 06/04 A3030 RMK AO2=
KTUS 210953Z 12014KT 10SM OVC085 22/09 A3005 RMK AO2 PK WND 12026/0942 SLP133
 T02170089=